Aérodrome :







RETROUVEZ-NOUS SUR...

 
LOGIN :

S'inscrire | Disclaimer

   EN    FR    IT 

 









Légende :    VFR   VFR Marginal   IFR   IFR Intensif   IFR Très Intensif
Visi : 
Plafond : 
>= 8 km
>= 3000ft
5 à 8 km
1000 à 3000 ft
1500m à 5 km
500 à 1000 ft
800 à 1500m
200 à 500 ft
< 800m
< 200 ft
Symboles :   Orages  Brouillard  Fortes neiges  Fortes précipitations  Vent > 20 kt






- Altitude de l'aérodrome : 461 ft
- Code IATA : YYT


CYYT - St John's Int

DERNIER METAR :
  • 280000Z 27014G//KT 15SM BKN020 01/00 A2937 RMK SC7 WND ESTD SLP953

METARs EXPIRÉS :
  • 272300Z 27014KT 15SM FEW007 BKN015 01/00 A2936 RMK SF2SC3 WND ESTD SLP950
  • 272200Z 27015KT 6SM -DZ BR OVC006 01/00 A2936 RMK SF8 WND ESTD SLP950

TAF TAF CYYT
Valide du 28 à 00h jusqu'au 29 à 00h UTC


272338Z 2800/2824 27012G22KT 2SM -DZ BR OVC007
TEMPO 2800/2806 P6SM NSW SCT007 BKN015
PROB40 2800/2806 1SM -FZDZ BR OVC003
FM280600 26012G22KT P6SM BKN008
BECMG 2807/2809 27012KT
FM281500 27012KT P6SM BKN010
FM282000 30010KT 1SM -SN OVC006
PROB30 2820/2824 3/4SM -FZDZ BR VV002 RMK NXT FCST BY 280600Z



MET'MAP, la Météo Aéronautique d'un coup d'oeil ! - Copyright ORBIFLY Décembre 2007 - Disclaimer

ORBIFLY MET'MAP TEAM :

Programmation & Développement : Alexandra Zaïnal
Sur une idée originale de : Baudouin d'Aumeries
Assistance à la programmation : Marc-Olivier Méhu
Soutien technique & logistique : Manuel Goepfert

Contact : metmap@orbifly.com




SOURCES & CREDITS :

   NOAA